createdAt,value
2022-10-05T00:01:02.578Z,18.09
2022-10-05T00:03:37.060Z,17.86
2022-10-05T00:06:06.019Z,17.91
2022-10-05T00:08:35.948Z,17.83
2022-10-05T00:11:04.174Z,17.64
2022-10-05T00:13:32.804Z,17.20
2022-10-05T00:16:13.871Z,17.14
2022-10-05T00:18:47.695Z,17.30
2022-10-05T00:21:23.434Z,18.02
2022-10-05T00:23:52.816Z,17.40
2022-10-05T00:26:23.633Z,17.33
2022-10-05T00:28:52.961Z,17.46
2022-10-05T00:31:23.729Z,18.02
2022-10-05T00:33:54.957Z,18.57
2022-10-05T00:36:23.351Z,18.38
2022-10-05T00:38:51.671Z,17.83
2022-10-05T00:41:38.852Z,18.39
2022-10-05T00:44:29.451Z,18.27
2022-10-05T00:47:08.079Z,18.37
2022-10-05T00:50:07.087Z,18.24
2022-10-05T00:52:49.999Z,17.89
2022-10-05T00:55:31.407Z,17.73
2022-10-05T00:58:13.708Z,17.78
2022-10-05T01:01:01.820Z,18.22
2022-10-05T01:03:43.875Z,17.86
2022-10-05T01:06:24.269Z,17.99
2022-10-05T01:09:04.140Z,18.34
2022-10-05T01:11:44.476Z,17.27
2022-10-05T01:14:23.435Z,17.18
2022-10-05T01:16:59.223Z,17.62
2022-10-05T01:19:52.936Z,17.65
2022-10-05T01:22:46.087Z,18.02
2022-10-05T01:25:27.418Z,18.57
2022-10-05T01:28:15.263Z,18.63
2022-10-05T01:31:08.800Z,18.03
2022-10-05T01:33:53.630Z,17.88
2022-10-05T01:36:29.865Z,17.92
2022-10-05T01:39:08.405Z,18.09
2022-10-05T01:41:58.466Z,17.79
2022-10-05T01:44:32.740Z,18.28
2022-10-05T01:47:08.406Z,18.53
2022-10-05T01:49:39.779Z,18.50
2022-10-05T01:52:24.416Z,18.72
2022-10-05T01:55:17.069Z,18.11
2022-10-05T01:58:04.564Z,18.13
2022-10-05T02:00:44.236Z,18.70
2022-10-05T02:03:20.108Z,18.78
2022-10-05T02:05:53.989Z,19.07
2022-10-05T02:08:28.860Z,18.77
2022-10-05T02:11:03.336Z,18.84
2022-10-05T02:13:41.276Z,19.21
2022-10-05T02:16:17.669Z,19.23
2022-10-05T02:18:52.851Z,19.22
2022-10-05T02:21:37.181Z,19.39
2022-10-05T02:24:20.146Z,19.34
2022-10-05T02:26:49.861Z,19.40
2022-10-05T02:29:34.783Z,18.55
2022-10-05T02:32:09.108Z,17.99
2022-10-05T02:34:40.605Z,18.67
2022-10-05T02:37:23.581Z,18.34
2022-10-05T02:40:15.855Z,17.79
2022-10-05T02:42:58.508Z,18.28
2022-10-05T02:45:39.532Z,18.71
2022-10-05T02:48:16.729Z,18.93
2022-10-05T02:50:54.895Z,18.40
2022-10-05T02:53:30.458Z,18.75
2022-10-05T02:56:14.625Z,18.97
2022-10-05T02:58:54.523Z,19.35
2022-10-05T03:01:32.446Z,18.91
2022-10-05T03:04:14.970Z,19.10
2022-10-05T03:06:55.811Z,18.34
2022-10-05T03:09:32.994Z,18.27
2022-10-05T03:12:13.990Z,18.19
2022-10-05T03:14:52.797Z,17.74
2022-10-05T03:17:32.296Z,17.79
2022-10-05T03:20:21.547Z,18.30
2022-10-05T03:22:52.486Z,18.35
2022-10-05T03:26:03.973Z,18.40
2022-10-05T03:28:43.690Z,17.83
2022-10-05T03:31:20.835Z,17.79
2022-10-05T03:34:01.684Z,17.57
2022-10-05T03:36:39.752Z,17.87
2022-10-05T03:39:16.152Z,17.95
2022-10-05T03:41:49.068Z,17.48
2022-10-05T03:44:36.487Z,17.69
2022-10-05T03:47:16.103Z,17.35
2022-10-05T03:50:00.061Z,17.65
2022-10-05T03:52:38.246Z,18.72
2022-10-05T03:55:19.800Z,17.95
2022-10-05T03:57:51.205Z,17.29
2022-10-05T04:00:30.496Z,17.52
2022-10-05T04:03:06.240Z,17.46
2022-10-05T04:05:43.255Z,18.34
2022-10-05T04:08:22.003Z,17.54
2022-10-05T04:10:53.128Z,17.71
2022-10-05T04:13:27.476Z,17.92
2022-10-05T04:16:02.060Z,17.82
2022-10-05T04:18:35.987Z,17.92
2022-10-05T04:21:11.762Z,18.06
2022-10-05T04:23:56.766Z,18.79
2022-10-05T04:26:33.338Z,18.15
2022-10-05T04:29:12.071Z,18.99
2022-10-05T04:32:03.587Z,18.82
2022-10-05T04:35:02.720Z,18.52
2022-10-05T04:37:46.731Z,18.99
2022-10-05T04:40:36.621Z,18.68
2022-10-05T04:43:13.518Z,19.09
2022-10-05T04:46:06.588Z,19.34
2022-10-05T04:49:05.021Z,17.68
2022-10-05T04:51:46.578Z,18.07
2022-10-05T04:54:27.588Z,18.01
2022-10-05T04:57:01.611Z,18.28
2022-10-05T05:00:03.114Z,18.58
2022-10-05T05:02:49.293Z,17.87
2022-10-05T05:05:28.988Z,18.16
2022-10-05T05:08:10.019Z,18.16
2022-10-05T05:11:22.323Z,17.67
2022-10-05T05:14:14.248Z,17.98
2022-10-05T05:16:46.413Z,18.11
2022-10-05T05:19:34.793Z,18.21
2022-10-05T05:22:18.340Z,18.52
2022-10-05T05:25:04.355Z,18.67
2022-10-05T05:27:42.442Z,18.78
2022-10-05T05:30:22.255Z,18.95
2022-10-05T05:33:09.276Z,19.71
2022-10-05T05:36:19.513Z,19.66
2022-10-05T05:39:03.869Z,18.91
2022-10-05T05:41:39.108Z,19.81
2022-10-05T05:44:20.824Z,19.44
2022-10-05T05:47:03.950Z,19.56
2022-10-05T05:49:56.066Z,19.42
2022-10-05T05:52:31.508Z,18.65
2022-10-05T05:55:06.451Z,17.93
2022-10-05T05:57:44.013Z,19.03
2022-10-05T06:00:22.675Z,19.22
2022-10-05T06:02:59.652Z,19.25
2022-10-05T06:05:33.515Z,18.86
2022-10-05T06:08:11.996Z,19.17
2022-10-05T06:10:44.756Z,19.16
2022-10-05T06:13:20.436Z,18.71
2022-10-05T06:15:54.290Z,18.65
2022-10-05T06:18:24.778Z,19.13
2022-10-05T06:21:01.112Z,18.52
2022-10-05T06:23:36.912Z,17.63
2022-10-05T06:26:39.561Z,18.23
2022-10-05T06:29:22.068Z,18.88
2022-10-05T06:32:06.241Z,18.72
2022-10-05T06:34:58.205Z,19.09
2022-10-05T06:37:45.626Z,19.23
2022-10-05T06:40:31.992Z,19.71
2022-10-05T06:43:36.196Z,18.90
2022-10-05T06:46:11.615Z,19.34
2022-10-05T06:48:58.513Z,19.77
2022-10-05T06:51:37.412Z,19.98
2022-10-05T06:54:21.309Z,20.12
2022-10-05T06:56:57.535Z,20.38
2022-10-05T06:59:34.326Z,19.87
2022-10-05T07:02:10.153Z,20.11
2022-10-05T07:05:25.772Z,19.50
2022-10-05T07:07:59.691Z,18.89
2022-10-05T07:10:36.597Z,18.55
2022-10-05T07:13:27.866Z,18.31
2022-10-05T07:16:00.926Z,18.05
2022-10-05T07:18:50.865Z,17.90
2022-10-05T07:21:34.504Z,17.50
2022-10-05T07:24:22.604Z,18.20
2022-10-05T07:26:57.719Z,17.90
2022-10-05T07:29:33.722Z,18.79
2022-10-05T07:32:15.572Z,18.85
2022-10-05T07:34:58.666Z,19.68
2022-10-05T07:37:51.893Z,18.44
2022-10-05T07:40:29.587Z,18.89
2022-10-05T07:43:12.714Z,19.84
2022-10-05T07:45:49.006Z,20.33
2022-10-05T07:48:21.996Z,19.30
2022-10-05T07:51:02.482Z,18.43
2022-10-05T07:53:38.547Z,19.58
2022-10-05T07:56:16.215Z,20.34
2022-10-05T07:58:48.332Z,20.15
2022-10-05T08:01:20.844Z,20.08
2022-10-05T08:03:57.793Z,20.89
2022-10-05T08:06:45.374Z,20.55
2022-10-05T08:09:38.497Z,21.04
2022-10-05T08:12:22.164Z,21.09
2022-10-05T08:14:58.315Z,19.94
2022-10-05T08:17:42.765Z,20.05
2022-10-05T08:20:34.301Z,20.22
2022-10-05T08:23:13.250Z,20.70
2022-10-05T08:25:54.686Z,21.30
2022-10-05T08:28:29.551Z,20.02
2022-10-05T08:31:05.498Z,20.14
2022-10-05T08:33:46.362Z,20.05
2022-10-05T08:36:16.926Z,19.72
2022-10-05T08:38:45.726Z,19.78
2022-10-05T08:42:07.976Z,19.81
2022-10-05T08:45:23.176Z,18.92
2022-10-05T08:48:17.258Z,19.80
2022-10-05T08:51:39.426Z,20.50
2022-10-05T08:54:46.971Z,20.43
2022-10-05T08:57:46.573Z,20.50
2022-10-05T09:00:20.721Z,20.36
2022-10-05T09:03:29.864Z,20.35
2022-10-05T09:06:27.814Z,20.18
2022-10-05T09:09:36.326Z,19.92
2022-10-05T09:12:41.477Z,20.24
2022-10-05T09:15:44.123Z,20.04
2022-10-05T09:19:03.501Z,21.47
2022-10-05T09:21:43.774Z,20.69
2022-10-05T09:24:48.522Z,20.49
2022-10-05T09:27:19.257Z,20.46
2022-10-05T09:30:20.231Z,20.67
2022-10-05T09:33:33.524Z,21.19
2022-10-05T09:36:45.051Z,21.24
2022-10-05T09:39:36.743Z,21.61
2022-10-05T09:42:50.040Z,21.54
2022-10-05T09:45:45.547Z,22.50
2022-10-05T09:48:56.333Z,24.27
2022-10-05T09:52:00.202Z,22.96
2022-10-05T09:55:24.022Z,23.69
2022-10-05T09:58:36.293Z,22.58
2022-10-05T10:01:34.483Z,22.97
2022-10-05T10:04:25.790Z,22.61
2022-10-05T10:07:26.440Z,22.41
2022-10-05T10:10:38.906Z,22.46
2022-10-05T10:13:43.302Z,21.73
2022-10-05T10:16:26.946Z,23.79
2022-10-05T10:19:21.375Z,23.16
2022-10-05T10:22:39.700Z,24.11
2022-10-05T10:26:08.670Z,23.90
2022-10-05T10:29:13.544Z,23.40
2022-10-05T10:32:22.212Z,24.17
2022-10-05T10:35:22.435Z,23.57
2022-10-05T10:38:36.467Z,23.15
2022-10-05T10:41:47.479Z,23.30
2022-10-05T10:45:09.284Z,23.67
2022-10-05T10:48:01.017Z,24.14
2022-10-05T10:51:13.877Z,24.38
2022-10-05T10:54:20.389Z,23.89
2022-10-05T10:57:19.208Z,24.43
2022-10-05T11:00:32.580Z,24.65
2022-10-05T11:03:42.995Z,24.94
2022-10-05T11:06:28.102Z,24.65
2022-10-05T11:09:31.003Z,24.72
2022-10-05T11:13:20.218Z,24.15
2022-10-05T11:16:30.468Z,25.21
2022-10-05T11:19:35.044Z,25.88
2022-10-05T11:22:37.693Z,26.47
2022-10-05T11:25:32.124Z,25.63
2022-10-05T11:28:29.301Z,26.04
2022-10-05T11:31:32.194Z,26.60
2022-10-05T11:34:38.958Z,26.50
2022-10-05T11:37:48.002Z,26.13
2022-10-05T11:41:03.331Z,25.53
2022-10-05T11:44:07.141Z,26.82
2022-10-05T11:46:44.583Z,26.50
2022-10-05T11:49:28.352Z,27.09
2022-10-05T11:52:10.107Z,27.28
2022-10-05T11:55:10.816Z,27.27
2022-10-05T11:57:52.216Z,26.82
2022-10-05T12:00:23.184Z,26.62
2022-10-05T12:03:38.747Z,27.43
2022-10-05T12:06:23.461Z,26.77
2022-10-05T12:09:05.905Z,27.10
2022-10-05T12:11:57.695Z,27.73
2022-10-05T12:14:39.402Z,27.61
2022-10-05T12:17:19.405Z,27.93
2022-10-05T12:19:55.598Z,27.45
2022-10-05T12:22:30.610Z,27.62
2022-10-05T12:25:22.824Z,27.12
2022-10-05T12:27:55.598Z,28.02
2022-10-05T12:30:36.392Z,27.27
2022-10-05T12:33:15.310Z,28.08
2022-10-05T12:35:49.714Z,28.61
2022-10-05T12:38:29.625Z,27.73
2022-10-05T12:41:10.991Z,28.64
2022-10-05T12:43:54.581Z,28.65
2022-10-05T12:46:35.639Z,28.97
2022-10-05T12:49:34.990Z,29.80
2022-10-05T12:52:06.761Z,29.51
2022-10-05T12:54:47.662Z,29.37
2022-10-05T12:57:27.066Z,28.95
2022-10-05T13:00:05.247Z,29.86
2022-10-05T13:02:43.199Z,29.79
2022-10-05T13:05:29.247Z,29.72
2022-10-05T13:08:17.843Z,32.01
2022-10-05T13:10:51.074Z,30.71
2022-10-05T13:13:47.916Z,32.85
2022-10-05T13:16:31.122Z,33.40
2022-10-05T13:19:24.031Z,33.52
2022-10-05T13:22:17.245Z,29.46
2022-10-05T13:24:59.347Z,29.46
2022-10-05T13:27:33.431Z,29.17
2022-10-05T13:30:08.454Z,28.76
2022-10-05T13:32:43.198Z,30.29
2022-10-05T13:35:40.348Z,29.57
2022-10-05T13:38:25.270Z,30.16
2022-10-05T13:41:05.944Z,30.04
2022-10-05T13:43:41.397Z,29.86
2022-10-05T13:46:19.796Z,30.01
2022-10-05T13:49:06.150Z,29.62
2022-10-05T13:51:46.881Z,29.23
2022-10-05T13:54:20.494Z,29.41
2022-10-05T13:56:55.906Z,29.56
2022-10-05T13:59:31.765Z,29.50
2022-10-05T14:02:07.057Z,29.58
2022-10-05T14:04:48.636Z,29.26
2022-10-05T14:07:34.382Z,30.66
2022-10-05T14:10:04.635Z,30.92
2022-10-05T14:12:41.864Z,30.63
2022-10-05T14:15:24.350Z,30.44
2022-10-05T14:17:52.808Z,30.63
2022-10-05T14:20:28.015Z,30.17
2022-10-05T14:23:01.908Z,30.09
2022-10-05T14:25:31.670Z,30.32
2022-10-05T14:28:04.926Z,30.69
2022-10-05T14:30:35.097Z,30.80
2022-10-05T14:33:17.510Z,31.03
2022-10-05T14:35:50.552Z,30.42
2022-10-05T14:38:23.037Z,30.04
2022-10-05T14:41:18.940Z,29.72
2022-10-05T14:43:56.947Z,30.09
2022-10-05T14:46:29.134Z,30.20
2022-10-05T14:49:17.127Z,29.65
2022-10-05T14:51:46.833Z,29.26
2022-10-05T14:54:28.606Z,30.33
2022-10-05T14:57:07.950Z,29.74
2022-10-05T15:00:12.583Z,29.40
2022-10-05T15:03:07.111Z,29.63
2022-10-05T15:05:40.962Z,30.38
2022-10-05T15:08:28.155Z,31.02
2022-10-05T15:11:04.728Z,32.22
2022-10-05T15:13:39.020Z,32.88
2022-10-05T15:16:19.929Z,32.24
2022-10-05T15:18:58.230Z,33.26
2022-10-05T15:21:45.068Z,34.44
2022-10-05T15:24:20.957Z,35.08
2022-10-05T15:26:52.049Z,34.49
2022-10-05T15:29:52.220Z,34.58
2022-10-05T15:32:38.083Z,31.97
2022-10-05T15:35:36.830Z,32.19
2022-10-05T15:38:21.079Z,32.16
2022-10-05T15:41:10.042Z,32.56
2022-10-05T15:44:06.141Z,32.10
2022-10-05T15:46:41.495Z,30.72
2022-10-05T15:49:29.006Z,29.96
2022-10-05T15:52:07.225Z,29.18
2022-10-05T15:55:10.779Z,28.88
2022-10-05T15:57:52.128Z,28.15
2022-10-05T16:00:23.208Z,28.30
2022-10-05T16:03:02.333Z,27.90
2022-10-05T16:06:19.707Z,28.13
2022-10-05T16:09:11.820Z,27.62
2022-10-05T16:12:00.374Z,28.34
2022-10-05T16:14:55.004Z,29.02
2022-10-05T16:17:37.949Z,28.74
2022-10-05T16:20:23.171Z,28.49
2022-10-05T16:22:59.710Z,27.70
2022-10-05T16:25:46.273Z,28.32
2022-10-05T16:28:29.966Z,28.14
2022-10-05T16:31:09.766Z,28.14
2022-10-05T16:33:54.827Z,28.50
2022-10-05T16:36:37.408Z,28.48
2022-10-05T16:39:16.836Z,28.54
2022-10-05T16:41:56.590Z,27.21
2022-10-05T16:44:40.494Z,26.52
2022-10-05T16:47:36.109Z,26.94
2022-10-05T16:50:20.895Z,26.83
2022-10-05T16:52:57.215Z,26.45
2022-10-05T16:55:36.452Z,25.90
2022-10-05T16:58:15.922Z,25.21
2022-10-05T17:01:02.115Z,25.67
2022-10-05T17:03:50.842Z,25.55
2022-10-05T17:06:45.978Z,25.46
2022-10-05T17:09:52.303Z,24.63
2022-10-05T17:12:47.047Z,24.67
2022-10-05T17:15:37.281Z,24.64
2022-10-05T17:18:25.001Z,24.79
2022-10-05T17:21:05.488Z,24.55
2022-10-05T17:23:53.518Z,24.04
2022-10-05T17:26:53.442Z,24.22
2022-10-05T17:29:30.404Z,24.60
2022-10-05T17:32:11.197Z,24.19
2022-10-05T17:34:41.461Z,23.50
2022-10-05T17:37:36.601Z,23.88
2022-10-05T17:40:34.390Z,24.04
2022-10-05T17:43:24.102Z,23.63
2022-10-05T17:46:02.115Z,23.67
2022-10-05T17:49:17.779Z,23.45
2022-10-05T17:52:22.772Z,22.96
2022-10-05T17:55:30.121Z,22.94
2022-10-05T17:58:02.647Z,23.15
2022-10-05T18:00:57.174Z,22.80
2022-10-05T18:03:42.848Z,23.15
2022-10-05T18:06:43.399Z,23.04
2022-10-05T18:09:44.359Z,23.38
2022-10-05T18:12:48.330Z,23.47
2022-10-05T18:15:48.782Z,22.92
2022-10-05T18:18:59.247Z,22.72
2022-10-05T18:21:39.676Z,22.12
2022-10-05T18:24:46.089Z,22.86
2022-10-05T18:27:54.265Z,22.85
2022-10-05T18:30:25.367Z,22.16
2022-10-05T18:33:47.643Z,22.16
2022-10-05T18:36:36.898Z,22.14
2022-10-05T18:39:18.812Z,21.78
2022-10-05T18:42:00.879Z,21.41
2022-10-05T18:44:40.745Z,21.13
2022-10-05T18:47:19.616Z,21.24
2022-10-05T18:50:17.591Z,20.94
2022-10-05T18:53:09.289Z,21.46
2022-10-05T18:55:44.821Z,21.34
2022-10-05T18:58:20.352Z,21.09
2022-10-05T19:01:33.912Z,21.88
2022-10-05T19:04:17.527Z,21.76
2022-10-05T19:06:58.448Z,21.58
2022-10-05T19:10:06.046Z,21.77
2022-10-05T19:12:51.516Z,21.02
2022-10-05T19:15:27.815Z,20.80
2022-10-05T19:18:34.554Z,21.21
2022-10-05T19:21:20.743Z,20.73
2022-10-05T19:24:06.921Z,20.34
2022-10-05T19:26:53.887Z,21.45
2022-10-05T19:29:37.870Z,21.47
2022-10-05T19:32:18.445Z,21.43
2022-10-05T19:35:07.331Z,21.36
2022-10-05T19:37:47.630Z,20.89
2022-10-05T19:40:24.499Z,21.32
2022-10-05T19:43:21.045Z,21.45
2022-10-05T19:46:04.253Z,20.60
2022-10-05T19:48:43.164Z,20.99
2022-10-05T19:51:27.642Z,21.15
2022-10-05T19:53:58.768Z,21.06
2022-10-05T19:56:31.360Z,21.04
2022-10-05T19:59:13.230Z,20.96
2022-10-05T20:01:45.819Z,20.95
2022-10-05T20:04:16.383Z,21.00
2022-10-05T20:06:47.968Z,21.42
2022-10-05T20:09:25.336Z,21.56
2022-10-05T20:11:54.891Z,21.70
2022-10-05T20:14:31.897Z,20.78
2022-10-05T20:17:35.802Z,20.22
2022-10-05T20:20:25.350Z,20.10
2022-10-05T20:23:22.123Z,19.72
2022-10-05T20:26:04.579Z,19.48
2022-10-05T20:28:33.566Z,19.76
2022-10-05T20:31:02.382Z,19.65
2022-10-05T20:33:31.084Z,20.16
2022-10-05T20:36:03.705Z,20.03
2022-10-05T20:38:40.029Z,20.25
2022-10-05T20:41:11.305Z,19.80
2022-10-05T20:43:40.477Z,20.68
2022-10-05T20:46:08.900Z,20.74
2022-10-05T20:48:37.279Z,20.65
2022-10-05T20:51:06.107Z,20.25
2022-10-05T20:53:35.998Z,20.45
2022-10-05T20:56:04.728Z,20.74
2022-10-05T20:58:33.053Z,20.41
2022-10-05T21:01:19.954Z,19.89
2022-10-05T21:03:49.802Z,19.81
2022-10-05T21:06:21.020Z,19.81
2022-10-05T21:08:51.476Z,19.97
2022-10-05T21:11:19.934Z,20.34
2022-10-05T21:13:49.402Z,20.11
2022-10-05T21:16:19.769Z,20.43
2022-10-05T21:18:50.423Z,20.50
2022-10-05T21:21:19.741Z,20.74
2022-10-05T21:23:51.240Z,19.95
2022-10-05T21:26:21.826Z,20.02
2022-10-05T21:28:51.832Z,20.54
2022-10-05T21:31:20.356Z,20.35
2022-10-05T21:33:48.794Z,20.23
2022-10-05T21:36:21.116Z,20.22
2022-10-05T21:38:55.765Z,20.22
2022-10-05T21:41:25.702Z,20.14
2022-10-05T21:43:55.132Z,20.19
2022-10-05T21:46:26.969Z,20.70
2022-10-05T21:48:56.020Z,20.80
2022-10-05T21:51:26.906Z,20.63
2022-10-05T21:54:01.725Z,20.13
2022-10-05T21:56:34.799Z,19.69
2022-10-05T21:59:04.920Z,20.06
2022-10-05T22:01:35.994Z,20.06
2022-10-05T22:04:04.695Z,19.85
2022-10-05T22:06:35.240Z,19.54
2022-10-05T22:09:06.419Z,18.57
2022-10-05T22:11:35.336Z,18.27
2022-10-05T22:14:03.771Z,19.10
2022-10-05T22:16:35.278Z,19.24
2022-10-05T22:19:15.935Z,19.35
2022-10-05T22:21:45.876Z,19.04
2022-10-05T22:24:16.227Z,19.52
2022-10-05T22:26:48.246Z,18.85
2022-10-05T22:29:17.539Z,19.19
2022-10-05T22:31:48.753Z,19.66
2022-10-05T22:34:18.232Z,19.49
2022-10-05T22:36:49.364Z,19.22
2022-10-05T22:39:19.427Z,19.70
2022-10-05T22:41:48.918Z,19.77
2022-10-05T22:44:17.549Z,19.23
2022-10-05T22:46:46.111Z,19.52
2022-10-05T22:49:14.766Z,19.94
2022-10-05T22:51:43.923Z,20.01
2022-10-05T22:54:12.672Z,19.15
2022-10-05T22:56:42.365Z,19.26
2022-10-05T22:59:10.924Z,18.75
2022-10-05T23:01:39.451Z,18.91
2022-10-05T23:04:09.002Z,18.97
2022-10-05T23:06:37.300Z,19.19
2022-10-05T23:09:06.420Z,19.34
2022-10-05T23:11:34.825Z,19.35
2022-10-05T23:14:04.720Z,18.85
2022-10-05T23:16:33.117Z,18.35
2022-10-05T23:19:01.865Z,18.81
2022-10-05T23:21:31.724Z,19.08
2022-10-05T23:24:00.143Z,19.20
2022-10-05T23:26:29.104Z,19.34
2022-10-05T23:28:57.511Z,18.94
2022-10-05T23:31:31.121Z,19.02
2022-10-05T23:33:59.972Z,18.33
2022-10-05T23:36:32.359Z,18.45
2022-10-05T23:39:02.906Z,18.64
2022-10-05T23:41:31.193Z,18.34
2022-10-05T23:43:59.669Z,18.11
2022-10-05T23:46:32.576Z,17.88
2022-10-05T23:49:00.893Z,18.34
2022-10-05T23:51:29.223Z,18.30
2022-10-05T23:53:57.642Z,18.47
2022-10-05T23:56:26.592Z,18.16
2022-10-05T23:58:55.300Z,17.93
